sensor_id;sensor_type;location;lat;lon;timestamp;P1;durP1;ratioP1;P2;durP2;ratioP2
1308;SDS011;647;48.840;9.314;2022-12-20T00:00:31;92.25;;;25.85;;
1308;SDS011;647;48.840;9.314;2022-12-20T00:02:58;88.57;;;24.13;;
1308;SDS011;647;48.840;9.314;2022-12-20T00:05:25;87.68;;;23.30;;
1308;SDS011;647;48.840;9.314;2022-12-20T00:07:52;91.20;;;24.10;;
1308;SDS011;647;48.840;9.314;2022-12-20T00:10:19;95.85;;;24.98;;
1308;SDS011;647;48.840;9.314;2022-12-20T00:12:48;87.60;;;23.88;;
1308;SDS011;647;48.840;9.314;2022-12-20T00:15:15;92.45;;;23.65;;
1308;SDS011;647;48.840;9.314;2022-12-20T00:17:42;88.78;;;24.65;;
1308;SDS011;647;48.840;9.314;2022-12-20T00:20:09;92.93;;;24.20;;
1308;SDS011;647;48.840;9.314;2022-12-20T00:22:36;91.57;;;24.65;;
1308;SDS011;647;48.840;9.314;2022-12-20T00:25:04;88.53;;;24.08;;
1308;SDS011;647;48.840;9.314;2022-12-20T00:27:31;88.63;;;23.20;;
1308;SDS011;647;48.840;9.314;2022-12-20T00:30:00;91.78;;;23.65;;
1308;SDS011;647;48.840;9.314;2022-12-20T00:32:27;90.68;;;24.20;;
1308;SDS011;647;48.840;9.314;2022-12-20T00:34:54;89.88;;;23.42;;
1308;SDS011;647;48.840;9.314;2022-12-20T00:37:21;90.72;;;23.30;;
1308;SDS011;647;48.840;9.314;2022-12-20T00:39:48;88.78;;;24.48;;
1308;SDS011;647;48.840;9.314;2022-12-20T00:42:15;87.05;;;23.50;;
1308;SDS011;647;48.840;9.314;2022-12-20T00:44:42;94.00;;;26.00;;
1308;SDS011;647;48.840;9.314;2022-12-20T00:47:11;87.85;;;22.77;;
1308;SDS011;647;48.840;9.314;2022-12-20T00:49:38;87.05;;;24.30;;
1308;SDS011;647;48.840;9.314;2022-12-20T00:52:06;83.60;;;21.67;;
1308;SDS011;647;48.840;9.314;2022-12-20T00:54:33;84.18;;;23.73;;
1308;SDS011;647;48.840;9.314;2022-12-20T00:57:00;87.68;;;23.35;;
1308;SDS011;647;48.840;9.314;2022-12-20T00:59:27;87.30;;;23.35;;
1308;SDS011;647;48.840;9.314;2022-12-20T01:01:54;84.75;;;22.52;;
1308;SDS011;647;48.840;9.314;2022-12-20T01:04:23;86.60;;;22.15;;
1308;SDS011;647;48.840;9.314;2022-12-20T01:06:50;86.55;;;20.92;;
1308;SDS011;647;48.840;9.314;2022-12-20T01:09:17;85.03;;;22.25;;
1308;SDS011;647;48.840;9.314;2022-12-20T01:11:44;85.90;;;22.60;;
1308;SDS011;647;48.840;9.314;2022-12-20T01:14:12;84.32;;;21.08;;
1308;SDS011;647;48.840;9.314;2022-12-20T01:16:41;83.60;;;22.83;;
1308;SDS011;647;48.840;9.314;2022-12-20T01:19:09;87.53;;;22.48;;
1308;SDS011;647;48.840;9.314;2022-12-20T01:21:38;85.15;;;22.17;;
1308;SDS011;647;48.840;9.314;2022-12-20T01:24:08;84.10;;;21.92;;
1308;SDS011;647;48.840;9.314;2022-12-20T01:26:35;84.75;;;22.10;;
1308;SDS011;647;48.840;9.314;2022-12-20T01:29:02;85.15;;;21.88;;
1308;SDS011;647;48.840;9.314;2022-12-20T01:31:29;84.03;;;22.17;;
1308;SDS011;647;48.840;9.314;2022-12-20T01:33:57;82.47;;;21.55;;
1308;SDS011;647;48.840;9.314;2022-12-20T01:36:25;91.38;;;23.40;;
1308;SDS011;647;48.840;9.314;2022-12-20T01:38:56;84.53;;;21.38;;
1308;SDS011;647;48.840;9.314;2022-12-20T01:41:23;89.78;;;24.88;;
1308;SDS011;647;48.840;9.314;2022-12-20T01:43:51;84.28;;;21.88;;
1308;SDS011;647;48.840;9.314;2022-12-20T01:46:19;86.65;;;22.70;;
1308;SDS011;647;48.840;9.314;2022-12-20T01:48:48;87.43;;;22.88;;
1308;SDS011;647;48.840;9.314;2022-12-20T01:51:16;82.60;;;22.17;;
1308;SDS011;647;48.840;9.314;2022-12-20T01:53:44;86.00;;;22.42;;
1308;SDS011;647;48.840;9.314;2022-12-20T01:56:13;87.65;;;23.52;;
1308;SDS011;647;48.840;9.314;2022-12-20T01:58:40;85.28;;;23.25;;
1308;SDS011;647;48.840;9.314;2022-12-20T02:01:07;83.18;;;21.80;;
1308;SDS011;647;48.840;9.314;2022-12-20T02:03:35;84.45;;;22.25;;
1308;SDS011;647;48.840;9.314;2022-12-20T02:06:12;84.75;;;20.77;;
1308;SDS011;647;48.840;9.314;2022-12-20T02:08:40;86.15;;;22.90;;
1308;SDS011;647;48.840;9.314;2022-12-20T02:11:08;83.22;;;20.40;;
1308;SDS011;647;48.840;9.314;2022-12-20T02:13:42;81.70;;;20.92;;
1308;SDS011;647;48.840;9.314;2022-12-20T02:16:14;84.32;;;21.77;;
1308;SDS011;647;48.840;9.314;2022-12-20T02:18:45;86.65;;;20.98;;
1308;SDS011;647;48.840;9.314;2022-12-20T02:21:27;87.90;;;22.83;;
1308;SDS011;647;48.840;9.314;2022-12-20T02:24:02;84.70;;;21.30;;
1308;SDS011;647;48.840;9.314;2022-12-20T02:26:40;80.93;;;20.65;;
1308;SDS011;647;48.840;9.314;2022-12-20T02:29:14;85.05;;;20.65;;
1308;SDS011;647;48.840;9.314;2022-12-20T02:31:48;81.45;;;19.85;;
1308;SDS011;647;48.840;9.314;2022-12-20T02:34:16;82.18;;;21.02;;
1308;SDS011;647;48.840;9.314;2022-12-20T02:36:45;86.75;;;21.98;;
1308;SDS011;647;48.840;9.314;2022-12-20T02:39:12;83.15;;;20.40;;
1308;SDS011;647;48.840;9.314;2022-12-20T02:41:41;84.07;;;19.75;;
1308;SDS011;647;48.840;9.314;2022-12-20T02:44:13;84.68;;;22.23;;
1308;SDS011;647;48.840;9.314;2022-12-20T02:47:01;85.13;;;21.67;;
1308;SDS011;647;48.840;9.314;2022-12-20T02:49:30;83.40;;;19.60;;
1308;SDS011;647;48.840;9.314;2022-12-20T02:51:58;85.47;;;20.48;;
1308;SDS011;647;48.840;9.314;2022-12-20T02:54:26;84.45;;;21.55;;
1308;SDS011;647;48.840;9.314;2022-12-20T02:56:56;81.13;;;19.77;;
1308;SDS011;647;48.840;9.314;2022-12-20T02:59:27;78.18;;;18.25;;
1308;SDS011;647;48.840;9.314;2022-12-20T03:01:55;81.40;;;19.55;;
1308;SDS011;647;48.840;9.314;2022-12-20T03:04:25;85.88;;;21.30;;
1308;SDS011;647;48.840;9.314;2022-12-20T03:06:56;80.68;;;21.52;;
1308;SDS011;647;48.840;9.314;2022-12-20T03:09:23;84.15;;;19.60;;
1308;SDS011;647;48.840;9.314;2022-12-20T03:11:50;85.75;;;21.40;;
1308;SDS011;647;48.840;9.314;2022-12-20T03:14:18;86.28;;;21.25;;
1308;SDS011;647;48.840;9.314;2022-12-20T03:16:45;83.10;;;19.92;;
1308;SDS011;647;48.840;9.314;2022-12-20T03:19:12;83.13;;;21.92;;
1308;SDS011;647;48.840;9.314;2022-12-20T03:21:41;85.15;;;20.60;;
1308;SDS011;647;48.840;9.314;2022-12-20T03:24:08;81.45;;;20.15;;
1308;SDS011;647;48.840;9.314;2022-12-20T03:26:37;82.82;;;20.23;;
1308;SDS011;647;48.840;9.314;2022-12-20T03:29:04;84.18;;;20.80;;
1308;SDS011;647;48.840;9.314;2022-12-20T03:31:32;87.50;;;23.00;;
1308;SDS011;647;48.840;9.314;2022-12-20T03:33:59;80.80;;;19.60;;
1308;SDS011;647;48.840;9.314;2022-12-20T03:36:26;83.88;;;19.60;;
1308;SDS011;647;48.840;9.314;2022-12-20T03:38:55;78.88;;;19.38;;
1308;SDS011;647;48.840;9.314;2022-12-20T03:41:22;81.50;;;19.58;;
1308;SDS011;647;48.840;9.314;2022-12-20T03:43:50;82.45;;;22.05;;
1308;SDS011;647;48.840;9.314;2022-12-20T03:46:17;80.97;;;20.15;;
1308;SDS011;647;48.840;9.314;2022-12-20T03:48:44;84.15;;;20.75;;
1308;SDS011;647;48.840;9.314;2022-12-20T03:51:11;82.82;;;20.80;;
1308;SDS011;647;48.840;9.314;2022-12-20T03:53:38;87.15;;;21.05;;
1308;SDS011;647;48.840;9.314;2022-12-20T03:56:07;85.25;;;19.95;;
1308;SDS011;647;48.840;9.314;2022-12-20T03:58:34;85.47;;;21.65;;
1308;SDS011;647;48.840;9.314;2022-12-20T04:01:01;87.65;;;21.63;;
1308;SDS011;647;48.840;9.314;2022-12-20T04:03:28;85.57;;;21.80;;
1308;SDS011;647;48.840;9.314;2022-12-20T04:05:55;87.72;;;21.30;;
1308;SDS011;647;48.840;9.314;2022-12-20T04:08:23;87.55;;;20.98;;
1308;SDS011;647;48.840;9.314;2022-12-20T04:10:50;82.55;;;20.00;;
1308;SDS011;647;48.840;9.314;2022-12-20T04:13:36;81.95;;;20.80;;
1308;SDS011;647;48.840;9.314;2022-12-20T04:16:03;85.50;;;19.80;;
1308;SDS011;647;48.840;9.314;2022-12-20T04:18:30;85.80;;;20.52;;
1308;SDS011;647;48.840;9.314;2022-12-20T04:20:58;81.63;;;20.67;;
1308;SDS011;647;48.840;9.314;2022-12-20T04:23:25;84.93;;;20.83;;
1308;SDS011;647;48.840;9.314;2022-12-20T04:25:52;84.40;;;22.08;;
1308;SDS011;647;48.840;9.314;2022-12-20T04:28:19;86.82;;;22.15;;
1308;SDS011;647;48.840;9.314;2022-12-20T04:30:48;88.45;;;22.20;;
1308;SDS011;647;48.840;9.314;2022-12-20T04:33:15;80.03;;;19.95;;
1308;SDS011;647;48.840;9.314;2022-12-20T04:35:42;83.18;;;21.90;;
1308;SDS011;647;48.840;9.314;2022-12-20T04:38:09;85.32;;;21.77;;
1308;SDS011;647;48.840;9.314;2022-12-20T04:40:36;88.03;;;22.13;;
1308;SDS011;647;48.840;9.314;2022-12-20T04:43:03;81.63;;;21.58;;
1308;SDS011;647;48.840;9.314;2022-12-20T04:45:31;87.15;;;21.63;;
1308;SDS011;647;48.840;9.314;2022-12-20T04:47:59;89.03;;;20.63;;
1308;SDS011;647;48.840;9.314;2022-12-20T04:50:26;83.13;;;21.27;;
1308;SDS011;647;48.840;9.314;2022-12-20T04:52:53;85.70;;;22.00;;
1308;SDS011;647;48.840;9.314;2022-12-20T04:55:47;83.72;;;20.27;;
1308;SDS011;647;48.840;9.314;2022-12-20T04:58:14;83.43;;;21.20;;
1308;SDS011;647;48.840;9.314;2022-12-20T05:00:41;82.65;;;20.88;;
1308;SDS011;647;48.840;9.314;2022-12-20T05:03:09;83.53;;;20.77;;
1308;SDS011;647;48.840;9.314;2022-12-20T05:05:36;86.63;;;20.80;;
1308;SDS011;647;48.840;9.314;2022-12-20T05:08:04;90.72;;;21.92;;
1308;SDS011;647;48.840;9.314;2022-12-20T05:10:31;89.05;;;22.85;;
1308;SDS011;647;48.840;9.314;2022-12-20T05:12:58;83.70;;;20.50;;
1308;SDS011;647;48.840;9.314;2022-12-20T05:15:25;85.35;;;21.70;;
1308;SDS011;647;48.840;9.314;2022-12-20T05:17:53;88.03;;;23.42;;
1308;SDS011;647;48.840;9.314;2022-12-20T05:20:25;82.43;;;20.13;;
1308;SDS011;647;48.840;9.314;2022-12-20T05:22:52;84.03;;;20.65;;
1308;SDS011;647;48.840;9.314;2022-12-20T05:25:43;88.80;;;21.80;;
1308;SDS011;647;48.840;9.314;2022-12-20T05:28:28;92.20;;;21.23;;
1308;SDS011;647;48.840;9.314;2022-12-20T05:30:55;84.00;;;21.55;;
1308;SDS011;647;48.840;9.314;2022-12-20T05:33:22;89.97;;;22.27;;
1308;SDS011;647;48.840;9.314;2022-12-20T05:35:50;83.18;;;20.70;;
1308;SDS011;647;48.840;9.314;2022-12-20T05:38:18;84.45;;;21.50;;
1308;SDS011;647;48.840;9.314;2022-12-20T05:40:46;85.35;;;21.75;;
1308;SDS011;647;48.840;9.314;2022-12-20T05:43:13;83.43;;;20.17;;
1308;SDS011;647;48.840;9.314;2022-12-20T05:45:44;85.65;;;22.60;;
1308;SDS011;647;48.840;9.314;2022-12-20T05:48:11;82.95;;;22.08;;
1308;SDS011;647;48.840;9.314;2022-12-20T05:50:38;82.22;;;19.90;;
1308;SDS011;647;48.840;9.314;2022-12-20T05:53:07;81.30;;;20.13;;
1308;SDS011;647;48.840;9.314;2022-12-20T05:55:34;83.50;;;20.30;;
1308;SDS011;647;48.840;9.314;2022-12-20T05:58:01;83.15;;;20.48;;
1308;SDS011;647;48.840;9.314;2022-12-20T06:00:28;80.20;;;19.58;;
1308;SDS011;647;48.840;9.314;2022-12-20T06:02:55;82.72;;;19.48;;
1308;SDS011;647;48.840;9.314;2022-12-20T06:05:22;79.15;;;19.73;;
1308;SDS011;647;48.840;9.314;2022-12-20T06:07:50;80.47;;;20.60;;
1308;SDS011;647;48.840;9.314;2022-12-20T06:10:18;84.70;;;22.08;;
1308;SDS011;647;48.840;9.314;2022-12-20T06:12:45;86.25;;;23.15;;
1308;SDS011;647;48.840;9.314;2022-12-20T06:15:13;84.90;;;21.48;;
1308;SDS011;647;48.840;9.314;2022-12-20T06:17:40;83.05;;;21.95;;
1308;SDS011;647;48.840;9.314;2022-12-20T06:20:07;85.65;;;21.88;;
1308;SDS011;647;48.840;9.314;2022-12-20T06:22:36;80.45;;;20.13;;
1308;SDS011;647;48.840;9.314;2022-12-20T06:25:03;78.65;;;19.90;;
1308;SDS011;647;48.840;9.314;2022-12-20T06:27:32;86.40;;;19.92;;
1308;SDS011;647;48.840;9.314;2022-12-20T06:30:01;81.60;;;20.80;;
1308;SDS011;647;48.840;9.314;2022-12-20T06:32:28;79.68;;;19.60;;
1308;SDS011;647;48.840;9.314;2022-12-20T06:34:55;82.35;;;19.73;;
1308;SDS011;647;48.840;9.314;2022-12-20T06:37:22;82.55;;;20.83;;
1308;SDS011;647;48.840;9.314;2022-12-20T06:39:49;77.88;;;18.23;;
1308;SDS011;647;48.840;9.314;2022-12-20T06:42:16;83.63;;;20.65;;
1308;SDS011;647;48.840;9.314;2022-12-20T06:44:45;83.55;;;19.80;;
1308;SDS011;647;48.840;9.314;2022-12-20T06:47:12;89.22;;;20.73;;
1308;SDS011;647;48.840;9.314;2022-12-20T06:49:39;84.80;;;21.35;;
1308;SDS011;647;48.840;9.314;2022-12-20T06:52:06;85.90;;;21.35;;
1308;SDS011;647;48.840;9.314;2022-12-20T06:54:33;91.43;;;27.17;;
1308;SDS011;647;48.840;9.314;2022-12-20T06:57:00;92.28;;;26.33;;
1308;SDS011;647;48.840;9.314;2022-12-20T06:59:27;85.55;;;20.67;;
1308;SDS011;647;48.840;9.314;2022-12-20T07:01:56;82.90;;;19.48;;
1308;SDS011;647;48.840;9.314;2022-12-20T07:04:23;80.57;;;18.98;;
1308;SDS011;647;48.840;9.314;2022-12-20T07:06:50;81.55;;;20.50;;
1308;SDS011;647;48.840;9.314;2022-12-20T07:09:17;85.53;;;21.05;;
1308;SDS011;647;48.840;9.314;2022-12-20T07:11:44;82.85;;;20.75;;
1308;SDS011;647;48.840;9.314;2022-12-20T07:14:11;81.43;;;20.55;;
1308;SDS011;647;48.840;9.314;2022-12-20T07:16:39;85.55;;;21.40;;
1308;SDS011;647;48.840;9.314;2022-12-20T07:19:09;82.60;;;20.98;;
1308;SDS011;647;48.840;9.314;2022-12-20T07:21:37;84.28;;;21.40;;
1308;SDS011;647;48.840;9.314;2022-12-20T07:24:04;81.55;;;20.05;;
1308;SDS011;647;48.840;9.314;2022-12-20T07:26:31;82.95;;;21.50;;
1308;SDS011;647;48.840;9.314;2022-12-20T07:28:58;84.45;;;21.55;;
1308;SDS011;647;48.840;9.314;2022-12-20T07:31:26;83.55;;;20.85;;
1308;SDS011;647;48.840;9.314;2022-12-20T07:33:53;84.82;;;22.55;;
1308;SDS011;647;48.840;9.314;2022-12-20T07:36:21;84.80;;;20.50;;
1308;SDS011;647;48.840;9.314;2022-12-20T07:38:48;81.90;;;19.35;;
1308;SDS011;647;48.840;9.314;2022-12-20T07:41:16;85.95;;;21.67;;
1308;SDS011;647;48.840;9.314;2022-12-20T07:43:43;81.53;;;19.67;;
1308;SDS011;647;48.840;9.314;2022-12-20T07:46:11;80.75;;;20.42;;
1308;SDS011;647;48.840;9.314;2022-12-20T07:48:39;88.60;;;22.98;;
1308;SDS011;647;48.840;9.314;2022-12-20T07:51:06;86.95;;;21.25;;
1308;SDS011;647;48.840;9.314;2022-12-20T07:53:37;82.50;;;21.92;;
1308;SDS011;647;48.840;9.314;2022-12-20T07:56:06;79.95;;;19.42;;
1308;SDS011;647;48.840;9.314;2022-12-20T07:58:33;84.22;;;20.13;;
1308;SDS011;647;48.840;9.314;2022-12-20T08:01:01;77.93;;;19.25;;
1308;SDS011;647;48.840;9.314;2022-12-20T08:03:29;84.45;;;21.38;;
1308;SDS011;647;48.840;9.314;2022-12-20T08:05:59;83.97;;;19.58;;
1308;SDS011;647;48.840;9.314;2022-12-20T08:08:27;80.90;;;20.17;;
1308;SDS011;647;48.840;9.314;2022-12-20T08:10:56;84.57;;;21.10;;
1308;SDS011;647;48.840;9.314;2022-12-20T08:13:24;91.93;;;24.25;;
1308;SDS011;647;48.840;9.314;2022-12-20T08:15:51;83.38;;;20.40;;
1308;SDS011;647;48.840;9.314;2022-12-20T08:18:18;82.93;;;21.13;;
1308;SDS011;647;48.840;9.314;2022-12-20T08:20:45;86.72;;;22.25;;
1308;SDS011;647;48.840;9.314;2022-12-20T08:23:13;84.63;;;22.67;;
1308;SDS011;647;48.840;9.314;2022-12-20T08:25:40;89.95;;;23.33;;
1308;SDS011;647;48.840;9.314;2022-12-20T08:28:08;82.05;;;19.75;;
1308;SDS011;647;48.840;9.314;2022-12-20T08:30:36;83.05;;;21.30;;
1308;SDS011;647;48.840;9.314;2022-12-20T08:33:03;83.95;;;20.92;;
1308;SDS011;647;48.840;9.314;2022-12-20T08:35:30;81.60;;;20.25;;
1308;SDS011;647;48.840;9.314;2022-12-20T08:37:57;82.35;;;21.75;;
1308;SDS011;647;48.840;9.314;2022-12-20T08:40:24;89.25;;;21.20;;
1308;SDS011;647;48.840;9.314;2022-12-20T08:42:51;82.60;;;21.77;;
1308;SDS011;647;48.840;9.314;2022-12-20T08:45:20;85.95;;;22.30;;
1308;SDS011;647;48.840;9.314;2022-12-20T08:47:47;80.80;;;21.02;;
1308;SDS011;647;48.840;9.314;2022-12-20T08:50:14;94.90;;;22.17;;
1308;SDS011;647;48.840;9.314;2022-12-20T08:52:41;84.47;;;21.63;;
1308;SDS011;647;48.840;9.314;2022-12-20T08:55:08;85.72;;;20.35;;
1308;SDS011;647;48.840;9.314;2022-12-20T08:57:35;79.60;;;21.17;;
1308;SDS011;647;48.840;9.314;2022-12-20T09:00:03;79.32;;;19.00;;
1308;SDS011;647;48.840;9.314;2022-12-20T09:02:33;80.65;;;19.42;;
1308;SDS011;647;48.840;9.314;2022-12-20T09:05:02;78.95;;;18.95;;
1308;SDS011;647;48.840;9.314;2022-12-20T09:07:30;80.88;;;19.80;;
1308;SDS011;647;48.840;9.314;2022-12-20T09:09:57;81.57;;;20.15;;
1308;SDS011;647;48.840;9.314;2022-12-20T09:12:24;87.18;;;20.90;;
1308;SDS011;647;48.840;9.314;2022-12-20T09:14:51;84.13;;;20.55;;
1308;SDS011;647;48.840;9.314;2022-12-20T09:17:18;84.32;;;20.48;;
1308;SDS011;647;48.840;9.314;2022-12-20T09:19:47;79.05;;;19.00;;
1308;SDS011;647;48.840;9.314;2022-12-20T09:22:14;76.80;;;18.42;;
1308;SDS011;647;48.840;9.314;2022-12-20T09:24:41;77.28;;;18.88;;
1308;SDS011;647;48.840;9.314;2022-12-20T09:27:09;79.30;;;18.35;;
1308;SDS011;647;48.840;9.314;2022-12-20T09:29:36;77.15;;;16.73;;
1308;SDS011;647;48.840;9.314;2022-12-20T09:32:03;73.18;;;16.50;;
1308;SDS011;647;48.840;9.314;2022-12-20T09:34:30;77.55;;;17.88;;
1308;SDS011;647;48.840;9.314;2022-12-20T09:36:59;74.55;;;17.38;;
1308;SDS011;647;48.840;9.314;2022-12-20T09:39:26;79.20;;;17.85;;
1308;SDS011;647;48.840;9.314;2022-12-20T09:41:53;78.15;;;18.70;;
1308;SDS011;647;48.840;9.314;2022-12-20T09:44:23;77.28;;;15.70;;
1308;SDS011;647;48.840;9.314;2022-12-20T09:46:51;74.80;;;17.05;;
1308;SDS011;647;48.840;9.314;2022-12-20T09:49:20;75.88;;;16.52;;
1308;SDS011;647;48.840;9.314;2022-12-20T09:51:53;78.72;;;18.40;;
1308;SDS011;647;48.840;9.314;2022-12-20T09:54:26;72.82;;;15.43;;
1308;SDS011;647;48.840;9.314;2022-12-20T09:56:57;75.70;;;17.77;;
1308;SDS011;647;48.840;9.314;2022-12-20T09:59:25;76.22;;;16.55;;
1308;SDS011;647;48.840;9.314;2022-12-20T10:01:53;78.43;;;16.05;;
1308;SDS011;647;48.840;9.314;2022-12-20T10:04:21;78.40;;;17.17;;
1308;SDS011;647;48.840;9.314;2022-12-20T10:06:56;76.57;;;16.40;;
1308;SDS011;647;48.840;9.314;2022-12-20T10:09:39;76.32;;;15.13;;
1308;SDS011;647;48.840;9.314;2022-12-20T10:12:11;74.38;;;14.80;;
1308;SDS011;647;48.840;9.314;2022-12-20T10:14:44;73.97;;;15.63;;
1308;SDS011;647;48.840;9.314;2022-12-20T10:17:15;72.93;;;14.70;;
1308;SDS011;647;48.840;9.314;2022-12-20T10:22:29;76.22;;;15.35;;
1308;SDS011;647;48.840;9.314;2022-12-20T10:25:00;70.03;;;13.67;;
1308;SDS011;647;48.840;9.314;2022-12-20T10:27:28;72.10;;;14.70;;
1308;SDS011;647;48.840;9.314;2022-12-20T10:29:56;92.72;;;27.33;;
1308;SDS011;647;48.840;9.314;2022-12-20T10:32:23;110.65;;;43.38;;
1308;SDS011;647;48.840;9.314;2022-12-20T10:34:51;85.80;;;22.95;;
1308;SDS011;647;48.840;9.314;2022-12-20T10:37:20;81.45;;;21.75;;
1308;SDS011;647;48.840;9.314;2022-12-20T10:39:49;85.63;;;22.05;;
1308;SDS011;647;48.840;9.314;2022-12-20T10:42:24;84.87;;;22.80;;
1308;SDS011;647;48.840;9.314;2022-12-20T10:44:52;111.10;;;33.87;;
1308;SDS011;647;48.840;9.314;2022-12-20T10:47:23;102.18;;;31.42;;
1308;SDS011;647;48.840;9.314;2022-12-20T10:50:01;84.85;;;20.40;;
1308;SDS011;647;48.840;9.314;2022-12-20T10:52:33;75.33;;;14.33;;
1308;SDS011;647;48.840;9.314;2022-12-20T10:55:01;78.83;;;15.07;;
1308;SDS011;647;48.840;9.314;2022-12-20T10:57:30;91.50;;;26.03;;
1308;SDS011;647;48.840;9.314;2022-12-20T10:59:58;72.97;;;16.10;;
1308;SDS011;647;48.840;9.314;2022-12-20T11:02:26;97.10;;;28.13;;
1308;SDS011;647;48.840;9.314;2022-12-20T11:04:57;95.83;;;30.60;;
1308;SDS011;647;48.840;9.314;2022-12-20T11:07:26;90.47;;;27.93;;
1308;SDS011;647;48.840;9.314;2022-12-20T11:09:54;86.30;;;25.97;;
1308;SDS011;647;48.840;9.314;2022-12-20T11:12:21;75.77;;;18.13;;
1308;SDS011;647;48.840;9.314;2022-12-20T11:14:50;78.70;;;20.10;;
1308;SDS011;647;48.840;9.314;2022-12-20T11:17:34;78.27;;;20.23;;
1308;SDS011;647;48.840;9.314;2022-12-20T11:20:20;75.23;;;17.20;;
1308;SDS011;647;48.840;9.314;2022-12-20T11:22:50;78.37;;;18.17;;
1308;SDS011;647;48.840;9.314;2022-12-20T11:25:24;79.97;;;16.87;;
1308;SDS011;647;48.840;9.314;2022-12-20T11:28:00;75.90;;;15.83;;
1308;SDS011;647;48.840;9.314;2022-12-20T11:30:37;75.20;;;16.40;;
1308;SDS011;647;48.840;9.314;2022-12-20T11:33:10;73.53;;;15.40;;
1308;SDS011;647;48.840;9.314;2022-12-20T11:35:44;74.80;;;17.33;;
1308;SDS011;647;48.840;9.314;2022-12-20T11:38:15;78.00;;;15.80;;
1308;SDS011;647;48.840;9.314;2022-12-20T11:40:45;75.77;;;15.30;;
1308;SDS011;647;48.840;9.314;2022-12-20T11:43:19;71.80;;;16.23;;
1308;SDS011;647;48.840;9.314;2022-12-20T11:45:57;73.87;;;15.50;;
1308;SDS011;647;48.840;9.314;2022-12-20T11:48:35;76.37;;;16.40;;
1308;SDS011;647;48.840;9.314;2022-12-20T11:51:06;74.07;;;19.43;;
1308;SDS011;647;48.840;9.314;2022-12-20T11:53:37;78.80;;;19.90;;
1308;SDS011;647;48.840;9.314;2022-12-20T11:56:07;71.70;;;13.83;;
1308;SDS011;647;48.840;9.314;2022-12-20T11:58:40;73.23;;;15.13;;
1308;SDS011;647;48.840;9.314;2022-12-20T12:01:12;73.60;;;15.60;;
1308;SDS011;647;48.840;9.314;2022-12-20T12:03:41;75.60;;;14.40;;
1308;SDS011;647;48.840;9.314;2022-12-20T12:06:10;75.17;;;15.63;;
1308;SDS011;647;48.840;9.314;2022-12-20T12:08:43;78.00;;;18.00;;
1308;SDS011;647;48.840;9.314;2022-12-20T12:11:13;74.40;;;15.40;;
1308;SDS011;647;48.840;9.314;2022-12-20T12:13:41;74.40;;;15.13;;
1308;SDS011;647;48.840;9.314;2022-12-20T12:16:10;73.10;;;15.33;;
1308;SDS011;647;48.840;9.314;2022-12-20T12:18:40;78.07;;;18.97;;
1308;SDS011;647;48.840;9.314;2022-12-20T12:21:07;77.33;;;18.33;;
1308;SDS011;647;48.840;9.314;2022-12-20T12:23:38;77.63;;;19.52;;
1308;SDS011;647;48.840;9.314;2022-12-20T12:26:09;73.22;;;16.40;;
1308;SDS011;647;48.840;9.314;2022-12-20T12:28:37;76.47;;;15.10;;
1308;SDS011;647;48.840;9.314;2022-12-20T12:31:05;72.83;;;17.27;;
1308;SDS011;647;48.840;9.314;2022-12-20T12:33:35;75.27;;;16.77;;
1308;SDS011;647;48.840;9.314;2022-12-20T12:36:10;76.77;;;16.20;;
1308;SDS011;647;48.840;9.314;2022-12-20T12:38:44;72.10;;;14.90;;
1308;SDS011;647;48.840;9.314;2022-12-20T12:44:21;75.43;;;16.10;;
1308;SDS011;647;48.840;9.314;2022-12-20T12:46:53;74.93;;;16.10;;
1308;SDS011;647;48.840;9.314;2022-12-20T12:49:21;75.67;;;16.10;;
1308;SDS011;647;48.840;9.314;2022-12-20T12:51:51;72.90;;;15.77;;
1308;SDS011;647;48.840;9.314;2022-12-20T12:54:20;78.53;;;16.57;;
1308;SDS011;647;48.840;9.314;2022-12-20T12:56:48;77.67;;;17.23;;
1308;SDS011;647;48.840;9.314;2022-12-20T12:59:20;81.13;;;19.73;;
1308;SDS011;647;48.840;9.314;2022-12-20T13:01:48;83.33;;;19.67;;
1308;SDS011;647;48.840;9.314;2022-12-20T13:04:25;78.67;;;18.00;;
1308;SDS011;647;48.840;9.314;2022-12-20T13:07:01;78.27;;;16.13;;
1308;SDS011;647;48.840;9.314;2022-12-20T13:09:39;74.93;;;15.70;;
1308;SDS011;647;48.840;9.314;2022-12-20T13:14:48;75.50;;;15.17;;
1308;SDS011;647;48.840;9.314;2022-12-20T13:20:14;72.53;;;15.47;;
1308;SDS011;647;48.840;9.314;2022-12-20T13:25:29;77.70;;;16.20;;
1308;SDS011;647;48.840;9.314;2022-12-20T13:30:39;73.33;;;16.53;;
1308;SDS011;647;48.840;9.314;2022-12-20T13:35:59;73.60;;;15.63;;
1308;SDS011;647;48.840;9.314;2022-12-20T13:38:48;73.67;;;15.37;;
1308;SDS011;647;48.840;9.314;2022-12-20T13:47:19;71.67;;;14.40;;
1308;SDS011;647;48.840;9.314;2022-12-20T13:49:49;73.37;;;14.33;;
1308;SDS011;647;48.840;9.314;2022-12-20T13:52:20;69.50;;;12.73;;
1308;SDS011;647;48.840;9.314;2022-12-20T13:54:51;74.00;;;16.37;;
1308;SDS011;647;48.840;9.314;2022-12-20T13:57:20;79.77;;;18.97;;
1308;SDS011;647;48.840;9.314;2022-12-20T13:59:51;79.80;;;20.30;;
1308;SDS011;647;48.840;9.314;2022-12-20T14:02:21;73.80;;;16.70;;
1308;SDS011;647;48.840;9.314;2022-12-20T14:04:52;72.83;;;16.37;;
1308;SDS011;647;48.840;9.314;2022-12-20T14:07:23;73.63;;;15.13;;
1308;SDS011;647;48.840;9.314;2022-12-20T14:09:54;76.70;;;17.10;;
1308;SDS011;647;48.840;9.314;2022-12-20T14:12:21;77.53;;;18.00;;
1308;SDS011;647;48.840;9.314;2022-12-20T14:14:49;74.20;;;15.63;;
1308;SDS011;647;48.840;9.314;2022-12-20T14:17:16;83.33;;;18.77;;
1308;SDS011;647;48.840;9.314;2022-12-20T14:19:45;76.43;;;16.63;;
1308;SDS011;647;48.840;9.314;2022-12-20T14:22:12;75.87;;;16.50;;
1308;SDS011;647;48.840;9.314;2022-12-20T14:24:40;74.33;;;17.77;;
1308;SDS011;647;48.840;9.314;2022-12-20T14:27:08;76.90;;;18.50;;
1308;SDS011;647;48.840;9.314;2022-12-20T14:29:37;79.70;;;21.20;;
1308;SDS011;647;48.840;9.314;2022-12-20T14:32:05;75.40;;;17.07;;
1308;SDS011;647;48.840;9.314;2022-12-20T14:34:33;73.37;;;16.23;;
1308;SDS011;647;48.840;9.314;2022-12-20T14:39:54;71.70;;;16.20;;
1308;SDS011;647;48.840;9.314;2022-12-20T14:42:21;75.60;;;15.70;;
1308;SDS011;647;48.840;9.314;2022-12-20T14:44:49;78.60;;;19.43;;
1308;SDS011;647;48.840;9.314;2022-12-20T14:47:17;73.90;;;16.13;;
1308;SDS011;647;48.840;9.314;2022-12-20T14:49:46;75.03;;;18.53;;
1308;SDS011;647;48.840;9.314;2022-12-20T14:52:14;79.07;;;18.93;;
1308;SDS011;647;48.840;9.314;2022-12-20T14:54:43;78.37;;;17.30;;
1308;SDS011;647;48.840;9.314;2022-12-20T14:57:19;75.10;;;16.50;;
1308;SDS011;647;48.840;9.314;2022-12-20T14:59:55;79.90;;;18.50;;
1308;SDS011;647;48.840;9.314;2022-12-20T15:02:35;80.20;;;19.70;;
1308;SDS011;647;48.840;9.314;2022-12-20T15:05:08;78.27;;;19.23;;
1308;SDS011;647;48.840;9.314;2022-12-20T15:07:55;79.93;;;20.77;;
1308;SDS011;647;48.840;9.314;2022-12-20T15:10:35;80.03;;;20.63;;
1308;SDS011;647;48.840;9.314;2022-12-20T15:13:03;78.70;;;20.37;;
1308;SDS011;647;48.840;9.314;2022-12-20T15:15:30;79.27;;;19.97;;
1308;SDS011;647;48.840;9.314;2022-12-20T15:17:58;77.88;;;21.08;;
1308;SDS011;647;48.840;9.314;2022-12-20T15:20:25;83.13;;;20.03;;
1308;SDS011;647;48.840;9.314;2022-12-20T15:22:52;78.77;;;20.50;;
1308;SDS011;647;48.840;9.314;2022-12-20T15:25:20;81.45;;;21.05;;
1308;SDS011;647;48.840;9.314;2022-12-20T15:27:47;77.83;;;21.20;;
1308;SDS011;647;48.840;9.314;2022-12-20T15:30:16;77.30;;;18.17;;
1308;SDS011;647;48.840;9.314;2022-12-20T15:32:43;79.67;;;20.57;;
1308;SDS011;647;48.840;9.314;2022-12-20T15:35:11;85.47;;;19.60;;
1308;SDS011;647;48.840;9.314;2022-12-20T15:37:39;79.57;;;20.43;;
1308;SDS011;647;48.840;9.314;2022-12-20T15:40:06;77.55;;;19.77;;